createdAt,value
2023-02-15T00:00:38.026Z,18.40
2023-02-15T00:03:05.642Z,19.87
2023-02-15T00:05:33.230Z,18.73
2023-02-15T00:08:00.815Z,19.27
2023-02-15T00:10:28.311Z,19.67
2023-02-15T00:12:55.873Z,19.43
2023-02-15T00:15:23.421Z,19.57
2023-02-15T00:17:50.963Z,19.20
2023-02-15T00:20:18.499Z,19.17
2023-02-15T00:22:46.133Z,18.77
2023-02-15T00:25:13.642Z,19.83
2023-02-15T00:27:41.262Z,18.77
2023-02-15T00:30:09.002Z,21.00
2023-02-15T00:32:36.632Z,20.83
2023-02-15T00:35:04.190Z,19.37
2023-02-15T00:37:31.777Z,20.37
2023-02-15T00:39:59.302Z,20.20
2023-02-15T00:42:26.841Z,20.83
2023-02-15T00:44:54.367Z,20.27
2023-02-15T00:47:21.949Z,19.97
2023-02-15T00:49:49.504Z,21.10
2023-02-15T00:52:17.121Z,19.90
2023-02-15T00:54:44.655Z,20.67
2023-02-15T00:57:12.196Z,21.33
2023-02-15T00:59:39.725Z,21.40
2023-02-15T01:02:07.296Z,20.10
2023-02-15T01:04:34.881Z,21.07
2023-02-15T01:07:02.476Z,19.83
2023-02-15T01:09:29.988Z,21.27
2023-02-15T01:11:57.521Z,20.63
2023-02-15T01:14:25.035Z,21.87
2023-02-15T01:16:52.564Z,20.37
2023-02-15T01:19:20.132Z,20.03
2023-02-15T01:21:47.728Z,22.47
2023-02-15T01:24:15.874Z,22.10
2023-02-15T01:26:43.440Z,21.57
2023-02-15T01:29:10.949Z,22.33
2023-02-15T01:31:38.695Z,21.63
2023-02-15T01:34:06.283Z,22.83
2023-02-15T01:36:35.292Z,21.67
2023-02-15T01:39:02.813Z,21.43
2023-02-15T01:41:30.413Z,22.63
2023-02-15T01:43:59.754Z,23.10
2023-02-15T01:46:30.311Z,23.33
2023-02-15T01:49:01.828Z,21.37
2023-02-15T01:51:31.115Z,22.60
2023-02-15T01:54:01.342Z,23.00
2023-02-15T01:56:31.095Z,23.47
2023-02-15T01:59:00.591Z,22.13
2023-02-15T02:01:29.143Z,23.57
2023-02-15T02:04:09.415Z,21.37
2023-02-15T02:06:38.621Z,23.63
2023-02-15T02:09:06.123Z,21.23
2023-02-15T02:11:34.050Z,22.80
2023-02-15T02:14:01.678Z,22.20
2023-02-15T02:16:48.198Z,23.57
2023-02-15T02:19:18.741Z,23.40
2023-02-15T02:21:46.361Z,22.77
2023-02-15T02:24:32.558Z,23.40
2023-02-15T02:27:09.027Z,22.50
2023-02-15T02:29:36.526Z,24.27
2023-02-15T02:32:04.096Z,23.00
2023-02-15T02:34:34.057Z,22.83
2023-02-15T02:37:09.913Z,23.07
2023-02-15T02:39:58.311Z,23.27
2023-02-15T02:42:25.862Z,23.77
2023-02-15T02:44:58.662Z,23.63
2023-02-15T02:47:26.196Z,22.90
2023-02-15T02:49:54.578Z,24.37
2023-02-15T02:52:37.515Z,24.23
2023-02-15T02:55:07.219Z,23.70
2023-02-15T02:57:36.745Z,23.40
2023-02-15T03:00:06.040Z,22.70
2023-02-15T03:02:36.385Z,24.37
2023-02-15T03:05:06.340Z,23.17
2023-02-15T03:07:35.503Z,24.27
2023-02-15T03:10:05.283Z,24.10
2023-02-15T03:12:34.307Z,24.03
2023-02-15T03:15:07.248Z,23.30
2023-02-15T03:17:36.168Z,24.67
2023-02-15T03:20:08.390Z,23.97
2023-02-15T03:22:38.309Z,24.63
2023-02-15T03:25:12.739Z,24.07
2023-02-15T03:27:43.018Z,22.47
2023-02-15T03:30:11.755Z,23.27
2023-02-15T03:32:40.505Z,23.57
2023-02-15T03:35:08.690Z,23.77
2023-02-15T03:37:44.730Z,24.27
2023-02-15T03:40:24.883Z,22.07
2023-02-15T03:42:55.276Z,23.90
2023-02-15T03:45:28.641Z,22.93
2023-02-15T03:47:57.878Z,23.43
2023-02-15T03:50:30.711Z,23.93
2023-02-15T03:52:59.317Z,24.33
2023-02-15T03:55:27.275Z,22.73
2023-02-15T03:57:54.804Z,23.73
2023-02-15T04:00:26.115Z,23.00
2023-02-15T04:02:53.648Z,22.90
2023-02-15T04:05:21.216Z,23.80
2023-02-15T04:07:48.815Z,23.17
2023-02-15T04:10:16.408Z,21.30
2023-02-15T04:12:44.004Z,20.83
2023-02-15T04:15:13.705Z,22.77
2023-02-15T04:17:41.254Z,22.80
2023-02-15T04:20:09.714Z,23.63
2023-02-15T04:22:37.325Z,24.00
2023-02-15T04:25:04.922Z,23.10
2023-02-15T04:27:32.438Z,22.40
2023-02-15T04:30:00.046Z,24.30
2023-02-15T04:32:27.627Z,23.40
2023-02-15T04:34:55.134Z,23.87
2023-02-15T04:37:22.817Z,23.40
2023-02-15T04:39:50.338Z,22.97
2023-02-15T04:42:17.898Z,23.47
2023-02-15T04:44:45.471Z,23.97
2023-02-15T04:47:13.085Z,23.30
2023-02-15T04:49:40.565Z,23.33
2023-02-15T04:52:08.101Z,21.67
2023-02-15T04:54:35.660Z,24.90
2023-02-15T04:57:03.272Z,23.23
2023-02-15T04:59:30.782Z,21.73
2023-02-15T05:01:58.425Z,22.63
2023-02-15T05:04:25.984Z,21.10
2023-02-15T05:06:53.550Z,23.43
2023-02-15T05:09:21.086Z,22.90
2023-02-15T05:11:48.702Z,22.03
2023-02-15T05:14:16.234Z,21.67
2023-02-15T05:16:43.945Z,23.07
2023-02-15T05:19:11.509Z,23.60
2023-02-15T05:21:39.114Z,23.83
2023-02-15T05:24:06.686Z,24.00
2023-02-15T05:26:34.289Z,22.70
2023-02-15T05:29:01.796Z,23.57
2023-02-15T05:31:29.564Z,22.97
2023-02-15T05:33:57.222Z,21.73
2023-02-15T05:36:24.818Z,22.50
2023-02-15T05:38:52.349Z,22.40
2023-02-15T05:41:19.908Z,24.67
2023-02-15T05:43:47.732Z,22.47
2023-02-15T05:46:15.357Z,23.57
2023-02-15T05:48:42.986Z,23.60
2023-02-15T05:51:11.687Z,23.33
2023-02-15T05:53:39.691Z,24.00
2023-02-15T05:56:08.430Z,23.60
2023-02-15T05:58:37.137Z,24.80
2023-02-15T06:01:15.186Z,23.43
2023-02-15T06:03:43.194Z,23.27
2023-02-15T06:06:11.207Z,21.00
2023-02-15T06:08:39.234Z,21.63
2023-02-15T06:11:07.117Z,21.73
2023-02-15T06:13:38.028Z,22.23
2023-02-15T06:16:06.602Z,22.50
2023-02-15T06:18:34.212Z,21.33
2023-02-15T06:21:01.838Z,21.87
2023-02-15T06:23:29.544Z,23.30
2023-02-15T06:25:57.261Z,22.30
2023-02-15T06:28:24.764Z,22.53
2023-02-15T06:30:52.341Z,20.10
2023-02-15T06:33:19.924Z,22.20
2023-02-15T06:35:47.507Z,22.00
2023-02-15T06:38:15.087Z,22.50
2023-02-15T06:40:42.654Z,21.63
2023-02-15T06:43:10.161Z,22.00
2023-02-15T06:45:37.715Z,22.80
2023-02-15T06:48:05.367Z,21.43
2023-02-15T06:50:33.047Z,20.23
2023-02-15T06:53:00.585Z,22.53
2023-02-15T06:55:28.171Z,21.50
2023-02-15T06:57:55.668Z,20.23
2023-02-15T07:00:23.390Z,21.33
2023-02-15T07:02:57.662Z,21.60
2023-02-15T07:05:25.944Z,21.43
2023-02-15T07:07:53.481Z,20.33
2023-02-15T07:10:21.111Z,21.53
2023-02-15T07:12:48.616Z,20.67
2023-02-15T07:15:17.466Z,21.27
2023-02-15T07:17:45.746Z,21.47
2023-02-15T07:20:20.813Z,20.20
2023-02-15T07:22:48.843Z,20.67
2023-02-15T07:25:16.400Z,19.83
2023-02-15T07:27:43.925Z,21.07
2023-02-15T07:30:12.830Z,20.77
2023-02-15T07:32:40.560Z,20.37
2023-02-15T07:35:08.087Z,19.83
2023-02-15T07:37:35.669Z,21.60
2023-02-15T07:40:03.165Z,19.37
2023-02-15T07:42:32.244Z,18.60
2023-02-15T07:44:59.750Z,19.67
2023-02-15T07:47:28.153Z,19.23
2023-02-15T07:49:55.659Z,18.43
2023-02-15T07:52:23.237Z,20.23
2023-02-15T07:54:50.752Z,19.93
2023-02-15T07:57:18.282Z,19.97
2023-02-15T07:59:45.852Z,19.57
2023-02-15T08:02:13.446Z,20.10
2023-02-15T08:04:41.037Z,18.50
2023-02-15T08:07:08.646Z,19.27
2023-02-15T08:09:36.174Z,18.20
2023-02-15T08:12:03.925Z,19.87
2023-02-15T08:14:31.492Z,18.53
2023-02-15T08:17:00.742Z,18.80
2023-02-15T08:19:29.399Z,18.10
2023-02-15T08:21:56.958Z,18.50
2023-02-15T08:24:25.417Z,19.57
2023-02-15T08:26:53.608Z,19.07
2023-02-15T08:29:22.525Z,17.27
2023-02-15T08:31:50.660Z,19.10
2023-02-15T08:34:19.794Z,18.83
2023-02-15T08:36:47.610Z,17.80
2023-02-15T08:39:16.324Z,15.40
2023-02-15T08:41:45.351Z,17.03
2023-02-15T08:44:13.132Z,17.27
2023-02-15T08:46:42.266Z,17.63
2023-02-15T08:49:10.372Z,16.73
2023-02-15T08:51:39.158Z,16.03
2023-02-15T08:54:08.046Z,16.23
2023-02-15T08:56:37.082Z,16.60
2023-02-15T08:59:05.196Z,16.97
2023-02-15T09:01:34.365Z,17.23
2023-02-15T09:04:03.124Z,16.10
2023-02-15T09:06:30.850Z,15.57
2023-02-15T09:08:58.554Z,16.40
2023-02-15T09:11:27.560Z,18.20
2023-02-15T09:13:56.570Z,16.17
2023-02-15T09:16:25.263Z,15.73
2023-02-15T09:18:53.329Z,14.57
2023-02-15T09:21:24.371Z,16.67
2023-02-15T09:23:53.418Z,15.63
2023-02-15T09:26:22.202Z,15.70
2023-02-15T09:28:52.681Z,16.80
2023-02-15T09:31:21.916Z,15.83
2023-02-15T09:33:50.340Z,15.33
2023-02-15T09:36:23.152Z,14.80
2023-02-15T09:38:57.960Z,15.30
2023-02-15T09:41:45.940Z,16.00
2023-02-15T09:44:32.975Z,14.73
2023-02-15T09:47:28.683Z,16.37
2023-02-15T09:49:59.404Z,15.03
2023-02-15T09:52:39.019Z,15.00
2023-02-15T09:55:12.444Z,15.93
2023-02-15T09:57:40.057Z,14.93
2023-02-15T10:00:32.850Z,16.20
2023-02-15T10:03:19.340Z,14.73
2023-02-15T10:05:55.232Z,14.73
2023-02-15T10:08:32.444Z,14.90
2023-02-15T10:11:00.173Z,15.10
2023-02-15T10:13:45.709Z,14.17
2023-02-15T10:16:16.096Z,15.07
2023-02-15T10:18:48.076Z,14.43
2023-02-15T10:21:31.863Z,15.03
2023-02-15T10:24:19.905Z,13.43
2023-02-15T10:26:48.813Z,14.03
2023-02-15T10:29:36.428Z,14.27
2023-02-15T10:32:04.085Z,14.47
2023-02-15T10:34:34.661Z,14.30
2023-02-15T10:37:21.000Z,14.80
2023-02-15T10:39:48.548Z,14.23
2023-02-15T10:42:19.120Z,13.67
2023-02-15T10:44:46.687Z,13.67
2023-02-15T10:47:20.320Z,13.17
2023-02-15T10:49:53.865Z,12.70
2023-02-15T10:52:33.531Z,13.53
2023-02-15T10:55:10.227Z,14.20
2023-02-15T10:57:43.758Z,14.00
2023-02-15T11:00:11.253Z,14.70
2023-02-15T11:02:57.389Z,13.50
2023-02-15T11:05:24.898Z,14.37
2023-02-15T11:07:54.462Z,13.83
2023-02-15T11:10:31.859Z,13.90
2023-02-15T11:13:02.690Z,14.00
2023-02-15T11:15:42.725Z,13.87
2023-02-15T11:18:14.815Z,14.30
2023-02-15T11:20:57.760Z,14.10
2023-02-15T11:23:26.604Z,14.60
2023-02-15T11:25:56.776Z,13.83
2023-02-15T11:28:28.909Z,13.40
2023-02-15T11:30:57.865Z,13.80
2023-02-15T11:33:30.805Z,12.73
2023-02-15T11:36:10.750Z,13.67
2023-02-15T11:38:38.764Z,14.27
2023-02-15T11:41:12.035Z,14.17
2023-02-15T11:43:52.639Z,13.60
2023-02-15T11:46:20.373Z,13.70
2023-02-15T11:48:47.916Z,13.90
2023-02-15T11:51:17.261Z,13.00
2023-02-15T11:53:45.642Z,14.70
2023-02-15T11:56:20.554Z,13.43
2023-02-15T11:59:14.567Z,13.83
2023-02-15T12:01:46.565Z,12.93
2023-02-15T12:04:17.295Z,13.20
2023-02-15T12:07:05.166Z,14.47
2023-02-15T12:09:49.750Z,12.70
2023-02-15T12:12:25.000Z,12.17
2023-02-15T12:14:53.771Z,13.77
2023-02-15T12:17:30.010Z,12.57
2023-02-15T12:19:59.270Z,13.40
2023-02-15T12:22:28.978Z,13.13
2023-02-15T12:24:58.141Z,14.47
2023-02-15T12:27:27.626Z,14.20
2023-02-15T12:29:58.036Z,13.47
2023-02-15T12:32:26.554Z,13.83
2023-02-15T12:34:56.362Z,12.73
2023-02-15T12:37:28.533Z,13.80
2023-02-15T12:40:00.844Z,14.87
2023-02-15T12:42:29.822Z,13.50
2023-02-15T12:45:01.449Z,13.53
2023-02-15T12:47:29.783Z,12.87
2023-02-15T12:50:12.134Z,13.83
2023-02-15T12:52:40.282Z,14.17
2023-02-15T12:55:19.992Z,13.20
2023-02-15T12:57:47.641Z,12.87
2023-02-15T13:00:21.025Z,14.17
2023-02-15T13:02:51.541Z,13.90
2023-02-15T13:05:21.804Z,13.70
2023-02-15T13:07:55.274Z,13.13
2023-02-15T13:10:37.736Z,14.10
2023-02-15T13:13:11.780Z,13.20
2023-02-15T13:15:42.236Z,13.67
2023-02-15T13:18:14.552Z,13.27
2023-02-15T13:20:42.612Z,13.20
2023-02-15T13:23:18.944Z,12.50
2023-02-15T13:25:47.568Z,13.33
2023-02-15T13:28:16.638Z,14.07
2023-02-15T13:30:46.034Z,13.67
2023-02-15T13:33:23.331Z,13.50
2023-02-15T13:36:06.019Z,13.97
2023-02-15T13:38:39.519Z,13.87
2023-02-15T13:41:11.069Z,13.27
2023-02-15T13:43:45.386Z,13.53
2023-02-15T13:46:19.201Z,13.90
2023-02-15T13:48:52.828Z,13.60
2023-02-15T13:51:39.115Z,13.70
2023-02-15T13:54:18.945Z,14.07
2023-02-15T13:56:53.437Z,14.33
2023-02-15T13:59:30.296Z,14.17
2023-02-15T14:01:57.823Z,14.13
2023-02-15T14:04:25.417Z,13.33
2023-02-15T14:06:53.045Z,14.33
2023-02-15T14:09:46.646Z,13.37
2023-02-15T14:12:20.349Z,13.33
2023-02-15T14:15:00.172Z,12.70
2023-02-15T14:17:40.172Z,12.67
2023-02-15T14:20:13.291Z,13.90
2023-02-15T14:22:43.447Z,14.00
2023-02-15T14:25:14.399Z,14.27
2023-02-15T14:27:41.944Z,13.33
2023-02-15T14:30:18.359Z,12.70
2023-02-15T14:32:56.576Z,13.67
2023-02-15T14:35:26.242Z,13.57
2023-02-15T14:38:00.539Z,14.07
2023-02-15T14:40:39.995Z,14.67
2023-02-15T14:43:17.371Z,14.43
2023-02-15T14:45:47.877Z,14.67
2023-02-15T14:48:22.348Z,13.27
2023-02-15T14:50:49.965Z,14.60
2023-02-15T14:53:18.884Z,14.47
2023-02-15T14:55:46.402Z,14.07
2023-02-15T14:58:14.956Z,13.43
2023-02-15T15:00:43.305Z,12.80
2023-02-15T15:03:29.177Z,13.60
2023-02-15T15:06:00.616Z,12.97
2023-02-15T15:08:49.176Z,13.53
2023-02-15T15:11:42.884Z,12.03
2023-02-15T15:14:12.031Z,12.67
2023-02-15T15:16:39.609Z,12.73
2023-02-15T15:19:11.655Z,13.60
2023-02-15T15:21:48.400Z,13.53
2023-02-15T15:24:34.695Z,13.83
2023-02-15T15:27:20.908Z,12.73
2023-02-15T15:29:48.438Z,13.07
2023-02-15T15:32:20.946Z,13.53
2023-02-15T15:34:57.882Z,13.20
2023-02-15T15:37:34.972Z,13.83
2023-02-15T15:40:08.695Z,13.17
2023-02-15T15:42:39.022Z,13.07
2023-02-15T15:45:29.930Z,12.53
2023-02-15T15:48:16.183Z,11.63
2023-02-15T15:50:44.048Z,12.70
2023-02-15T15:53:19.992Z,12.60
2023-02-15T15:55:48.843Z,13.77
2023-02-15T15:58:18.279Z,13.23
2023-02-15T16:00:48.900Z,12.77
2023-02-15T16:03:22.266Z,13.73
2023-02-15T16:05:49.961Z,13.40
2023-02-15T16:08:26.883Z,13.67
2023-02-15T16:10:54.457Z,13.80
2023-02-15T16:13:22.059Z,13.03
2023-02-15T16:15:51.461Z,13.90
2023-02-15T16:18:19.835Z,13.00
2023-02-15T16:20:52.142Z,13.27
2023-02-15T16:23:37.936Z,13.93
2023-02-15T16:26:24.387Z,13.67
2023-02-15T16:28:52.432Z,13.20
2023-02-15T16:31:20.701Z,13.90
2023-02-15T16:33:48.322Z,13.17
2023-02-15T16:36:26.233Z,13.03
2023-02-15T16:38:53.777Z,13.33
2023-02-15T16:41:25.318Z,13.87
2023-02-15T16:43:53.703Z,13.30
2023-02-15T16:46:25.402Z,13.10
2023-02-15T16:48:54.020Z,13.20
2023-02-15T16:51:23.494Z,12.73
2023-02-15T16:53:51.398Z,14.37
2023-02-15T16:56:24.182Z,14.77
2023-02-15T16:58:52.350Z,12.87
2023-02-15T17:01:22.004Z,11.90
2023-02-15T17:03:50.262Z,12.87
2023-02-15T17:06:25.419Z,13.10
2023-02-15T17:08:53.037Z,12.27
2023-02-15T17:11:20.572Z,12.87
2023-02-15T17:14:00.521Z,13.50
2023-02-15T17:16:29.593Z,13.43
2023-02-15T17:18:57.192Z,13.23
2023-02-15T17:21:27.037Z,12.87
2023-02-15T17:23:58.741Z,13.90
2023-02-15T17:26:28.494Z,13.00
2023-02-15T17:28:58.080Z,13.03
2023-02-15T17:31:27.178Z,13.80
2023-02-15T17:33:55.049Z,14.10
2023-02-15T17:36:23.824Z,13.27
2023-02-15T17:39:00.585Z,13.03
2023-02-15T17:41:32.282Z,13.70
2023-02-15T17:43:59.855Z,13.23
2023-02-15T17:46:28.877Z,13.67
2023-02-15T17:48:56.678Z,12.87
2023-02-15T17:51:24.370Z,13.10
2023-02-15T17:53:52.243Z,13.03
2023-02-15T17:56:19.781Z,12.53
2023-02-15T17:58:47.420Z,12.97
2023-02-15T18:01:18.434Z,13.90
2023-02-15T18:03:48.088Z,13.67
2023-02-15T18:06:16.185Z,12.60
2023-02-15T18:08:44.701Z,13.23
2023-02-15T18:11:12.398Z,12.53
2023-02-15T18:13:40.038Z,13.33
2023-02-15T18:16:12.772Z,13.63
2023-02-15T18:18:40.500Z,12.57
2023-02-15T18:21:12.279Z,13.23
2023-02-15T18:23:40.674Z,12.53
2023-02-15T18:26:11.234Z,13.80
2023-02-15T18:28:39.213Z,12.67
2023-02-15T18:31:07.448Z,12.90
2023-02-15T18:33:40.322Z,13.03
2023-02-15T18:36:08.984Z,13.00
2023-02-15T18:38:36.575Z,13.10
2023-02-15T18:41:05.482Z,13.40
2023-02-15T18:43:33.417Z,13.60
2023-02-15T18:46:01.408Z,12.47
2023-02-15T18:48:29.555Z,26.53
2023-02-15T18:50:57.929Z,13.80
2023-02-15T18:53:26.365Z,15.30
2023-02-15T18:55:54.599Z,15.93
2023-02-15T18:58:23.887Z,14.77
2023-02-15T19:00:51.694Z,16.17
2023-02-15T19:03:22.759Z,13.43
2023-02-15T19:05:50.352Z,15.50
2023-02-15T19:08:19.473Z,13.60
2023-02-15T19:10:47.144Z,13.90
2023-02-15T19:13:15.041Z,15.20
2023-02-15T19:15:42.850Z,13.77
2023-02-15T19:18:10.745Z,15.20
2023-02-15T19:20:43.801Z,13.77
2023-02-15T19:23:29.723Z,13.80
2023-02-15T19:25:57.529Z,14.90
2023-02-15T19:28:30.869Z,14.63
2023-02-15T19:30:58.872Z,13.67
2023-02-15T19:33:26.509Z,13.60
2023-02-15T19:35:54.633Z,14.50
2023-02-15T19:38:26.870Z,14.23
2023-02-15T19:40:57.321Z,13.47
2023-02-15T19:43:26.408Z,13.80
2023-02-15T19:45:54.398Z,13.47
2023-02-15T19:48:22.047Z,13.60
2023-02-15T19:50:50.091Z,14.53
2023-02-15T19:53:22.620Z,14.23
2023-02-15T19:55:50.853Z,14.20
2023-02-15T19:58:18.715Z,13.60
2023-02-15T20:00:47.755Z,13.67
2023-02-15T20:03:15.631Z,13.83
2023-02-15T20:05:43.778Z,13.80
2023-02-15T20:08:21.638Z,13.67
2023-02-15T20:10:49.765Z,14.33
2023-02-15T20:13:17.969Z,13.47
2023-02-15T20:15:46.358Z,14.27
2023-02-15T20:18:14.175Z,14.97
2023-02-15T20:20:46.012Z,13.93
2023-02-15T20:23:18.302Z,14.20
2023-02-15T20:25:46.044Z,13.07
2023-02-15T20:28:17.755Z,13.83
2023-02-15T20:30:45.608Z,14.13
2023-02-15T20:33:13.559Z,14.53
2023-02-15T20:35:41.599Z,13.30
2023-02-15T20:38:16.270Z,14.17
2023-02-15T20:40:43.925Z,14.47
2023-02-15T20:43:15.487Z,15.27
2023-02-15T20:45:43.089Z,14.20
2023-02-15T20:48:10.636Z,13.40
2023-02-15T20:50:38.267Z,13.27
2023-02-15T20:53:09.897Z,14.37
2023-02-15T20:55:37.578Z,13.43
2023-02-15T20:58:12.191Z,14.03
2023-02-15T21:00:39.970Z,13.30
2023-02-15T21:03:11.708Z,14.93
2023-02-15T21:05:39.453Z,14.10
2023-02-15T21:08:13.547Z,13.17
2023-02-15T21:10:41.753Z,13.20
2023-02-15T21:13:15.950Z,13.50
2023-02-15T21:15:43.677Z,14.63
2023-02-15T21:18:16.207Z,13.57
2023-02-15T21:20:45.985Z,14.23
2023-02-15T21:23:15.070Z,14.00
2023-02-15T21:25:44.477Z,13.63
2023-02-15T21:28:20.116Z,13.40
2023-02-15T21:30:48.799Z,14.57
2023-02-15T21:33:16.618Z,13.90
2023-02-15T21:35:45.270Z,15.10
2023-02-15T21:38:16.726Z,15.17
2023-02-15T21:40:45.076Z,13.70
2023-02-15T21:43:16.876Z,14.27
2023-02-15T21:45:44.773Z,14.97
2023-02-15T21:48:12.257Z,14.40
2023-02-15T21:50:40.115Z,14.87
2023-02-15T21:53:10.178Z,14.60
2023-02-15T21:55:37.833Z,15.23
2023-02-15T21:58:05.768Z,15.73
2023-02-15T22:00:33.451Z,15.53
2023-02-15T22:03:01.298Z,15.17
2023-02-15T22:05:30.160Z,14.50
2023-02-15T22:07:58.065Z,16.60
2023-02-15T22:10:30.373Z,15.33
2023-02-15T22:12:59.697Z,15.10
2023-02-15T22:15:29.685Z,15.60
2023-02-15T22:17:57.303Z,15.77
2023-02-15T22:20:25.160Z,15.13
2023-02-15T22:22:52.970Z,16.27
2023-02-15T22:25:22.645Z,15.17
2023-02-15T22:27:50.813Z,15.90
2023-02-15T22:30:24.243Z,16.53
2023-02-15T22:32:51.902Z,15.00
2023-02-15T22:35:24.314Z,15.90
2023-02-15T22:37:52.007Z,14.70
2023-02-15T22:40:20.174Z,15.60
2023-02-15T22:42:49.093Z,14.93
2023-02-15T22:45:18.032Z,17.10
2023-02-15T22:47:46.511Z,14.53
2023-02-15T22:50:33.265Z,15.23
2023-02-15T22:53:01.187Z,15.27
2023-02-15T22:55:30.093Z,14.83
2023-02-15T22:57:58.272Z,15.07
2023-02-15T23:00:27.746Z,15.70
2023-02-15T23:02:55.684Z,16.00
2023-02-15T23:05:24.902Z,16.27
2023-02-15T23:07:52.683Z,15.37
2023-02-15T23:10:21.314Z,15.73
2023-02-15T23:12:49.982Z,16.20
2023-02-15T23:15:17.575Z,17.07
2023-02-15T23:17:45.124Z,17.63
2023-02-15T23:20:15.980Z,15.57
2023-02-15T23:22:44.212Z,16.13
2023-02-15T23:25:12.221Z,17.37
2023-02-15T23:27:39.896Z,16.90
2023-02-15T23:30:12.888Z,16.73
2023-02-15T23:32:40.864Z,16.03
2023-02-15T23:35:18.517Z,15.93
2023-02-15T23:37:46.400Z,16.40
2023-02-15T23:40:17.534Z,15.63
2023-02-15T23:42:45.114Z,15.57
2023-02-15T23:45:33.021Z,17.20
2023-02-15T23:48:00.624Z,15.67
2023-02-15T23:50:29.649Z,15.77
2023-02-15T23:52:57.546Z,16.93
2023-02-15T23:55:28.149Z,16.17
2023-02-15T23:57:55.745Z,16.57
